Time;durP1;ratioP1;P1;durP2;ratioP2;P2;SDS_P1;SDS_P2;PMS_P1;PMS_P2;Temp;Humidity;BMP_temperature;BMP_pressure;BME280_temperature;BME280_humidity;BME280_pressure;Samples;Min_cycle;Max_cycle;Signal;HPM_P1;HPM_P2
2022/09/24 00:01:16;;;;;;;4.63;1.23;;;20.00;99.90;;;;;;5019440;28;20698;-80
2022/09/24 00:03:52;;;;;;;6.68;1.10;;;20.00;99.90;;;;;;5020820;28;20777;-80
2022/09/24 00:06:23;;;;;;;3.10;1.00;;;20.10;99.90;;;;;;5032008;28;20200;-79
2022/09/24 00:08:55;;;;;;;3.03;1.00;;;20.10;99.90;;;;;;5030494;28;20197;-79
2022/09/24 00:11:28;;;;;;;5.03;1.05;;;20.20;99.90;;;;;;5017302;28;20223;-79
2022/09/24 00:13:59;;;;;;;3.97;1.00;;;20.30;99.90;;;;;;5036009;28;20203;-79
2022/09/24 00:16:33;;;;;;;3.67;0.88;;;20.20;99.90;;;;;;5046602;28;20247;-78
2022/09/24 00:19:05;;;;;;;2.53;0.80;;;20.10;99.90;;;;;;5048643;28;20287;-80
2022/09/24 00:21:37;;;;;;;2.92;1.00;;;20.00;99.90;;;;;;5045280;28;20201;-80
2022/09/24 00:24:09;;;;;;;2.63;0.73;;;19.70;99.90;;;;;;5030375;28;20225;-80
2022/09/24 00:26:50;;;;;;;2.15;0.82;;;19.70;99.90;;;;;;5046011;28;20671;-80
2022/09/24 00:29:23;;;;;;;4.97;0.90;;;19.70;99.90;;;;;;5035454;28;20281;-80
2022/09/24 00:31:56;;;;;;;4.05;0.90;;;19.80;99.90;;;;;;5033692;28;20195;-80
2022/09/24 00:34:27;;;;;;;2.63;0.77;;;19.80;99.90;;;;;;5039694;28;20212;-80
2022/09/24 00:36:57;;;;;;;5.53;0.77;;;19.90;99.90;;;;;;5049358;28;20204;-80
2022/09/24 00:39:28;;;;;;;2.35;0.57;;;20.00;99.90;;;;;;5041335;28;20193;-81
2022/09/24 00:41:59;;;;;;;3.35;0.80;;;20.10;99.90;;;;;;5040473;28;20196;-79
2022/09/24 00:44:54;;;;;;;3.05;0.85;;;20.20;99.90;;;;;;5038264;28;20279;-80
2022/09/24 00:47:43;;;;;;;4.00;0.73;;;20.40;99.90;;;;;;5033177;28;20262;-80
2022/09/24 00:50:21;;;;;;;2.67;0.70;;;20.50;99.90;;;;;;5043508;28;20198;-81
2022/09/24 00:52:57;;;;;;;3.67;0.70;;;20.60;99.90;;;;;;5041596;28;20369;-80
2022/09/24 00:55:29;;;;;;;5.28;0.98;;;20.70;99.90;;;;;;5041889;28;20258;-81
2022/09/24 00:58:02;;;;;;;2.88;0.90;;;20.60;99.90;;;;;;5038571;28;20554;-80
2022/09/24 01:00:33;;;;;;;3.88;0.73;;;20.50;99.90;;;;;;5047298;28;20577;-80
2022/09/24 01:03:10;;;;;;;2.38;0.85;;;20.50;99.90;;;;;;5046880;28;20212;-80
2022/09/24 01:05:41;;;;;;;2.67;0.93;;;20.50;99.90;;;;;;5049060;28;20246;-80
2022/09/24 01:08:14;;;;;;;4.00;0.90;;;20.60;99.90;;;;;;5039288;28;20193;-82
2022/09/24 01:11:08;;;;;;;3.30;0.70;;;20.60;99.90;;;;;;5047460;28;20216;-79
2022/09/24 01:14:10;;;;;;;3.15;0.75;;;20.70;99.90;;;;;;5049717;28;20196;-81
2022/09/24 01:16:48;;;;;;;3.92;0.60;;;20.90;99.90;;;;;;5038386;28;20192;-80
2022/09/24 01:19:43;;;;;;;0.90;0.40;;;20.90;99.90;;;;;;5052888;28;20593;-79
2022/09/24 01:22:24;;;;;;;2.22;0.70;;;20.90;99.90;;;;;;5041103;28;20208;-79
2022/09/24 01:25:03;;;;;;;1.17;0.40;;;21.00;99.90;;;;;;5034480;28;20750;-79
2022/09/24 01:27:55;;;;;;;1.15;0.47;;;21.10;99.90;;;;;;5053797;28;20192;-79
2022/09/24 01:30:31;;;;;;;1.10;0.65;;;21.20;99.90;;;;;;5053345;28;20201;-79
2022/09/24 01:33:04;;;;;;;1.95;0.30;;;20.90;99.90;;;;;;5053822;28;20196;-79
2022/09/24 01:35:39;;;;;;;1.23;0.35;;;20.70;99.90;;;;;;5055367;28;20203;-79
2022/09/24 01:38:13;;;;;;;3.50;0.40;;;20.60;99.90;;;;;;5049894;28;20207;-79
2022/09/24 01:40:46;;;;;;;0.50;0.20;;;20.60;99.90;;;;;;5036163;28;20188;-79
2022/09/24 01:43:18;;;;;;;1.52;0.40;;;20.60;99.90;;;;;;5046370;28;20354;-78
2022/09/24 01:45:53;;;;;;;0.77;0.30;;;20.60;99.90;;;;;;5053052;28;20279;-79
2022/09/24 01:48:24;;;;;;;0.93;0.20;;;20.40;99.90;;;;;;5052836;28;20659;-79
2022/09/24 01:51:01;;;;;;;2.80;0.47;;;20.30;99.90;;;;;;5052913;28;20192;-79
2022/09/24 01:53:35;;;;;;;1.77;0.50;;;20.30;99.90;;;;;;5053183;28;20231;-79
2022/09/24 01:56:12;;;;;;;2.05;0.50;;;20.30;99.90;;;;;;5047741;28;20204;-80
2022/09/24 01:58:48;;;;;;;0.63;0.55;;;20.40;99.90;;;;;;5051506;28;20201;-80
2022/09/24 02:01:26;;;;;;;2.45;0.65;;;20.50;99.90;;;;;;5053022;28;20192;-80
2022/09/24 02:04:03;;;;;;;1.45;0.77;;;20.40;99.90;;;;;;5033461;28;20232;-80
2022/09/24 02:06:35;;;;;;;1.48;0.70;;;20.40;99.90;;;;;;5033683;28;20197;-79
2022/09/24 02:09:06;;;;;;;1.67;0.60;;;20.20;99.90;;;;;;5046070;28;20280;-79
2022/09/24 02:11:39;;;;;;;2.97;0.80;;;20.20;99.90;;;;;;5053065;28;20246;-80
2022/09/24 02:14:14;;;;;;;1.88;0.73;;;20.10;99.90;;;;;;5051406;28;20228;-80
2022/09/24 02:16:51;;;;;;;3.03;0.80;;;20.00;99.90;;;;;;5052532;28;20192;-79
2022/09/24 02:19:24;;;;;;;3.38;0.70;;;20.00;99.90;;;;;;5052343;28;20200;-79
2022/09/24 02:21:55;;;;;;;1.25;0.50;;;19.90;99.90;;;;;;5052497;28;20652;-80
2022/09/24 02:24:40;;;;;;;2.13;0.45;;;19.80;99.90;;;;;;5052862;28;20596;-80
2022/09/24 02:27:11;;;;;;;1.50;0.73;;;19.70;99.90;;;;;;5052464;28;20287;-79
2022/09/24 02:29:43;;;;;;;1.15;0.50;;;19.60;99.90;;;;;;5042090;28;20193;-80
2022/09/24 02:32:21;;;;;;;4.10;0.75;;;19.50;99.90;;;;;;5043761;28;20215;-79
2022/09/24 02:34:55;;;;;;;1.00;0.30;;;19.50;99.90;;;;;;5056027;28;20292;-80
2022/09/24 02:37:27;;;;;;;1.45;0.30;;;19.40;99.90;;;;;;5059751;28;20212;-79
2022/09/24 02:39:57;;;;;;;1.45;0.50;;;19.20;99.90;;;;;;5053725;28;20205;-79
2022/09/24 02:42:32;;;;;;;2.28;0.70;;;19.20;99.90;;;;;;5052799;28;20230;-79
2022/09/24 02:45:03;;;;;;;2.63;0.50;;;19.30;99.90;;;;;;5053325;28;20259;-79
2022/09/24 02:47:37;;;;;;;2.72;0.85;;;19.20;99.90;;;;;;5037744;28;20197;-80
2022/09/24 02:50:09;;;;;;;1.42;0.43;;;19.20;99.90;;;;;;5032813;28;20247;-79
2022/09/24 02:52:39;;;;;;;1.33;0.50;;;19.20;99.90;;;;;;5033865;28;20237;-79
2022/09/24 02:55:11;;;;;;;2.88;0.50;;;19.30;99.90;;;;;;5033815;28;20682;-80
2022/09/24 02:57:41;;;;;;;4.38;0.70;;;19.30;99.90;;;;;;5035534;28;20660;-80
2022/09/24 03:00:13;;;;;;;1.63;0.73;;;19.30;99.90;;;;;;5051905;28;20280;-78
2022/09/24 03:02:46;;;;;;;3.53;0.70;;;19.30;99.90;;;;;;5051072;28;20698;-79
2022/09/24 03:05:17;;;;;;;3.45;0.82;;;19.30;99.90;;;;;;5045421;28;20227;-80
2022/09/24 03:07:50;;;;;;;1.30;0.40;;;19.20;99.90;;;;;;5051754;28;20303;-80
2022/09/24 03:10:21;;;;;;;2.58;0.60;;;19.20;99.90;;;;;;5051599;28;20502;-80
2022/09/24 03:12:51;;;;;;;0.63;0.40;;;19.10;99.90;;;;;;5051572;28;20748;-79
2022/09/24 03:15:22;;;;;;;2.97;0.50;;;19.00;99.90;;;;;;5051907;28;20201;-79
2022/09/24 03:17:54;;;;;;;1.92;0.70;;;19.00;99.90;;;;;;5051281;28;20663;-79
2022/09/24 03:20:25;;;;;;;1.42;0.57;;;19.10;99.90;;;;;;5047112;28;20217;-79
2022/09/24 03:22:56;;;;;;;6.38;1.05;;;19.00;99.90;;;;;;5051552;28;20258;-79
2022/09/24 03:25:27;;;;;;;3.22;0.75;;;18.90;99.90;;;;;;5051749;28;20223;-79
2022/09/24 03:27:58;;;;;;;3.08;0.80;;;18.90;99.90;;;;;;5051070;28;20593;-78
2022/09/24 03:33:17;;;;;;;2.50;1.02;;;18.80;99.90;;;;;;5048548;28;20204;-79
2022/09/24 03:35:47;;;;;;;3.22;0.90;;;18.90;99.90;;;;;;5049967;28;20279;-80
2022/09/24 03:38:18;;;;;;;2.95;1.20;;;18.90;99.90;;;;;;5046906;28;20227;-80
2022/09/24 03:40:49;;;;;;;2.15;0.70;;;18.90;99.90;;;;;;5050507;28;20193;-79
2022/09/24 03:43:19;;;;;;;3.13;0.70;;;19.00;99.90;;;;;;5044630;28;20217;-79
2022/09/24 03:45:50;;;;;;;2.35;0.63;;;19.00;99.90;;;;;;5051081;28;20567;-79
2022/09/24 03:48:24;;;;;;;3.40;0.80;;;19.10;99.90;;;;;;5050793;28;20201;-79
2022/09/24 03:50:55;;;;;;;2.30;0.77;;;19.20;99.90;;;;;;5048721;28;20204;-79
2022/09/24 03:53:26;;;;;;;2.72;0.80;;;19.20;99.90;;;;;;5049926;28;20650;-79
2022/09/24 03:55:58;;;;;;;1.55;0.60;;;19.20;99.90;;;;;;5014853;28;20550;-79
2022/09/24 03:58:30;;;;;;;2.55;0.68;;;19.20;99.90;;;;;;5014873;28;20201;-79
2022/09/24 04:01:01;;;;;;;1.95;0.75;;;19.20;99.90;;;;;;5030024;28;20200;-79
2022/09/24 04:03:33;;;;;;;0.70;0.60;;;19.00;99.90;;;;;;5029231;28;20240;-80
2022/09/24 04:06:05;;;;;;;2.92;0.93;;;19.00;99.90;;;;;;5025294;28;20205;-80
2022/09/24 04:08:36;;;;;;;2.42;0.60;;;19.00;99.90;;;;;;5038479;28;20209;-80
2022/09/24 04:11:07;;;;;;;2.75;0.80;;;19.00;99.90;;;;;;5020254;28;20222;-82
2022/09/24 04:13:38;;;;;;;2.40;0.77;;;19.00;99.90;;;;;;5029509;28;20229;-84
2022/09/24 04:16:08;;;;;;;1.42;0.68;;;18.90;99.90;;;;;;5030372;28;20224;-80
2022/09/24 04:18:41;;;;;;;1.48;0.70;;;18.90;99.90;;;;;;5023189;28;20212;-80
2022/09/24 04:21:12;;;;;;;1.90;0.70;;;18.90;99.90;;;;;;5013727;28;20198;-79
2022/09/24 04:23:42;;;;;;;4.00;1.02;;;18.80;99.90;;;;;;5038064;28;20275;-80
2022/09/24 04:26:14;;;;;;;5.55;1.10;;;18.70;99.90;;;;;;5023134;28;20240;-79
2022/09/24 04:28:44;;;;;;;2.92;1.10;;;18.70;99.90;;;;;;5016576;28;20259;-79
2022/09/24 04:31:15;;;;;;;5.00;1.60;;;18.70;99.90;;;;;;5030295;28;20232;-80
2022/09/24 04:33:48;;;;;;;2.97;1.60;;;18.80;99.90;;;;;;5020422;28;20220;-79
2022/09/24 04:36:19;;;;;;;3.33;1.63;;;18.90;99.90;;;;;;5030183;28;20204;-81
2022/09/24 04:38:49;;;;;;;4.75;1.33;;;19.00;99.90;;;;;;5030595;28;20660;-81
2022/09/24 04:41:20;;;;;;;1.50;0.90;;;19.00;99.90;;;;;;5030326;28;20193;-81
2022/09/24 04:43:51;;;;;;;2.38;1.60;;;19.00;99.90;;;;;;5017934;28;20226;-81
2022/09/24 04:46:22;;;;;;;2.80;1.25;;;19.10;99.90;;;;;;5024086;28;20205;-80
2022/09/24 04:48:54;;;;;;;3.08;1.15;;;19.20;99.90;;;;;;5030687;28;20197;-81
2022/09/24 04:51:25;;;;;;;3.25;1.27;;;19.20;99.90;;;;;;5019603;28;20220;-80
2022/09/24 04:53:56;;;;;;;3.28;1.20;;;19.20;99.90;;;;;;5029373;28;20225;-80
2022/09/24 04:56:26;;;;;;;1.92;1.00;;;19.30;99.90;;;;;;5034995;28;20196;-80
2022/09/24 04:58:57;;;;;;;3.70;0.90;;;19.40;99.90;;;;;;5034303;28;20197;-81
2022/09/24 05:01:28;;;;;;;2.05;0.60;;;19.40;99.90;;;;;;5034895;28;20216;-80
2022/09/24 05:04:01;;;;;;;4.30;0.90;;;19.50;99.90;;;;;;5052486;28;20798;-79
2022/09/24 05:06:31;;;;;;;2.22;0.90;;;19.50;99.90;;;;;;5053681;28;20702;-79
2022/09/24 05:09:02;;;;;;;2.17;0.73;;;19.60;99.90;;;;;;5053808;28;20568;-79
2022/09/24 05:11:34;;;;;;;2.72;0.85;;;19.60;99.90;;;;;;5054593;28;20295;-80
2022/09/24 05:14:04;;;;;;;3.00;0.70;;;19.70;99.90;;;;;;5054667;28;20201;-80
2022/09/24 05:16:35;;;;;;;2.60;1.05;;;19.80;99.90;;;;;;5054015;28;20200;-80
2022/09/24 05:19:08;;;;;;;2.05;1.02;;;19.70;99.90;;;;;;5050909;28;20250;-80
2022/09/24 05:21:39;;;;;;;2.78;1.30;;;19.80;99.90;;;;;;5034187;28;20288;-79
2022/09/24 05:24:10;;;;;;;1.98;1.02;;;19.80;99.90;;;;;;5041565;28;20217;-78
2022/09/24 05:29:28;;;;;;;1.48;0.80;;;19.80;99.90;;;;;;5053851;28;20570;-80
2022/09/24 05:32:00;;;;;;;3.75;1.20;;;19.80;99.90;;;;;;5053866;28;20211;-80
2022/09/24 05:34:32;;;;;;;2.58;1.02;;;19.70;99.90;;;;;;5044673;28;20206;-80
2022/09/24 05:37:03;;;;;;;3.10;1.02;;;19.70;99.90;;;;;;5044429;28;20246;-80
2022/09/24 05:39:34;;;;;;;2.67;1.02;;;19.60;99.90;;;;;;5053632;28;20196;-79
2022/09/24 05:42:06;;;;;;;2.47;0.90;;;19.50;99.90;;;;;;5053777;28;20228;-80
2022/09/24 05:44:37;;;;;;;2.10;0.90;;;19.60;99.90;;;;;;5053645;28;20228;-79
2022/09/24 05:47:08;;;;;;;3.40;2.20;;;19.60;99.90;;;;;;5053476;28;20197;-79
2022/09/24 05:49:40;;;;;;;1.60;1.10;;;19.60;99.90;;;;;;5055016;28;20197;-80
2022/09/24 05:52:14;;;;;;;2.20;1.10;;;19.60;99.90;;;;;;5053263;28;20218;-80
2022/09/24 05:54:44;;;;;;;5.78;1.20;;;19.40;99.90;;;;;;5034114;28;20202;-81
2022/09/24 05:57:15;;;;;;;2.05;1.13;;;19.40;99.90;;;;;;5017317;28;20202;-79
2022/09/24 05:59:46;;;;;;;2.47;1.10;;;19.30;99.90;;;;;;5012697;28;20593;-80
2022/09/24 06:02:17;;;;;;;2.58;1.10;;;19.20;99.90;;;;;;5013300;28;20244;-80
2022/09/24 06:04:49;;;;;;;1.88;0.73;;;19.40;99.90;;;;;;5013479;28;20719;-80
2022/09/24 06:07:20;;;;;;;1.00;0.77;;;19.40;99.90;;;;;;5025181;28;20213;-80
2022/09/24 06:09:50;;;;;;;2.35;1.10;;;19.60;99.90;;;;;;5032568;28;20197;-80
2022/09/24 06:12:22;;;;;;;1.83;1.20;;;20.20;99.90;;;;;;5013508;28;20202;-79
2022/09/24 06:14:53;;;;;;;3.70;1.15;;;20.30;99.90;;;;;;5013456;28;20202;-80
2022/09/24 06:17:25;;;;;;;2.60;1.27;;;20.20;99.90;;;;;;5021328;28;20205;-79
2022/09/24 06:19:57;;;;;;;2.05;1.15;;;20.70;99.90;;;;;;5029624;28;20792;-78
2022/09/24 06:22:30;;;;;;;3.17;1.77;;;21.40;99.90;;;;;;5023893;28;20279;-79
2022/09/24 06:25:01;;;;;;;4.35;1.40;;;22.00;99.90;;;;;;5014561;28;20232;-81
2022/09/24 06:27:31;;;;;;;3.13;1.23;;;22.60;99.90;;;;;;5013492;28;20268;-79
2022/09/24 06:30:02;;;;;;;3.95;1.20;;;23.10;99.90;;;;;;5014834;28;20612;-81
2022/09/24 06:32:34;;;;;;;2.83;1.27;;;23.50;99.90;;;;;;5023352;28;20188;-80
2022/09/24 06:35:07;;;;;;;2.53;1.15;;;23.70;99.90;;;;;;5032466;28;20615;-80
2022/09/24 06:37:38;;;;;;;4.97;1.50;;;24.00;99.90;;;;;;5027612;28;20312;-79
2022/09/24 06:40:10;;;;;;;1.90;1.10;;;23.90;99.90;;;;;;5018655;28;20611;-81
2022/09/24 06:42:40;;;;;;;5.53;1.17;;;23.50;99.90;;;;;;5013476;28;20198;-82
2022/09/24 06:45:12;;;;;;;2.30;0.90;;;22.90;99.90;;;;;;5013499;28;20248;-80
2022/09/24 06:47:43;;;;;;;2.47;1.15;;;22.40;99.90;;;;;;5013057;28;20198;-80
2022/09/24 06:50:15;;;;;;;2.67;1.30;;;22.00;99.90;;;;;;5013152;28;20668;-81
2022/09/24 06:52:46;;;;;;;2.45;1.40;;;21.60;99.90;;;;;;5026093;28;20252;-81
2022/09/24 06:55:17;;;;;;;4.25;1.25;;;21.20;99.90;;;;;;5036237;28;20210;-81
2022/09/24 06:57:48;;;;;;;2.13;1.30;;;20.90;99.90;;;;;;5032589;28;20221;-81
2022/09/24 07:00:19;;;;;;;2.25;1.25;;;20.50;99.90;;;;;;5032941;28;20208;-81
2022/09/24 07:02:55;;;;;;;4.05;1.38;;;20.10;99.90;;;;;;5033109;28;20224;-82
2022/09/24 07:05:27;;;;;;;4.38;1.60;;;19.60;99.90;;;;;;5038247;28;20277;-81
2022/09/24 07:07:58;;;;;;;3.72;1.35;;;19.50;99.90;;;;;;5046059;28;20197;-80
2022/09/24 07:10:30;;;;;;;5.43;2.05;;;19.40;99.90;;;;;;5050712;28;20727;-81
2022/09/24 07:13:00;;;;;;;4.10;1.40;;;19.20;99.90;;;;;;5033057;28;20726;-80
2022/09/24 07:15:33;;;;;;;4.07;1.70;;;19.00;99.90;;;;;;5031910;28;20205;-80
2022/09/24 07:18:03;;;;;;;2.72;1.20;;;19.00;99.90;;;;;;5032093;28;20201;-80
2022/09/24 07:20:36;;;;;;;4.65;1.48;;;19.00;99.90;;;;;;5031320;28;20287;-79
2022/09/24 07:23:08;;;;;;;3.10;1.48;;;18.90;99.90;;;;;;5047623;28;20658;-79
2022/09/24 07:25:41;;;;;;;2.67;1.50;;;18.80;99.90;;;;;;5051912;28;20224;-80
2022/09/24 07:28:14;;;;;;;5.03;1.70;;;18.70;99.90;;;;;;5037828;28;20271;-79
2022/09/24 07:30:45;;;;;;;3.15;1.60;;;18.70;99.90;;;;;;5031679;28;20205;-80
2022/09/24 07:33:15;;;;;;;8.25;2.40;;;18.60;99.90;;;;;;5031375;28;20201;-80
2022/09/24 07:35:48;;;;;;;3.90;1.70;;;18.60;99.90;;;;;;5041015;28;20203;-80
2022/09/24 07:38:19;;;;;;;3.50;1.60;;;18.60;99.90;;;;;;5042288;28;20200;-81
2022/09/24 07:40:50;;;;;;;3.80;1.60;;;18.60;99.90;;;;;;5031525;28;20212;-81
2022/09/24 07:43:22;;;;;;;3.10;1.60;;;18.50;99.90;;;;;;5032050;28;20209;-80
2022/09/24 07:45:54;;;;;;;5.43;1.83;;;18.50;99.90;;;;;;5051049;28;20286;-80
2022/09/24 07:48:25;;;;;;;2.75;1.80;;;18.40;99.90;;;;;;5050977;28;20223;-81
2022/09/24 07:50:58;;;;;;;5.00;1.92;;;18.40;99.90;;;;;;5051316;28;20196;-81
2022/09/24 07:53:29;;;;;;;5.60;2.10;;;18.40;99.90;;;;;;5036804;28;20302;-80
2022/09/24 07:56:02;;;;;;;3.42;2.17;;;18.40;99.90;;;;;;5030889;28;20222;-82
2022/09/24 07:58:33;;;;;;;5.22;2.05;;;18.30;99.90;;;;;;5032333;28;20205;-79
2022/09/24 08:01:25;;;;;;;3.60;2.08;;;18.30;99.90;;;;;;5055283;28;20213;-80
2022/09/24 08:07:02;;;;;;;7.75;3.50;;;18.30;99.90;;;;;;5020288;28;20746;-81
2022/09/24 08:09:33;;;;;;;5.55;2.40;;;18.30;99.90;;;;;;5041962;28;20224;-81
2022/09/24 08:12:30;;;;;;;4.22;2.70;;;18.30;99.90;;;;;;5056583;28;20208;-86
2022/09/24 08:15:11;;;;;;;5.47;2.97;;;18.30;99.90;;;;;;5058972;28;20209;-81
2022/09/24 08:17:55;;;;;;;8.80;3.15;;;18.20;99.90;;;;;;5060722;28;20263;-81
2022/09/24 08:20:30;;;;;;;5.80;3.30;;;18.20;99.90;;;;;;5043420;28;20197;-80
2022/09/24 08:23:17;;;;;;;7.32;3.00;;;18.10;99.90;;;;;;5062825;28;20455;-81
2022/09/24 08:26:02;;;;;;;7.65;2.40;;;18.10;99.90;;;;;;5056724;28;20226;-81
2022/09/24 08:28:59;;;;;;;8.70;2.65;;;18.10;99.90;;;;;;5039305;28;20216;-83
2022/09/24 08:31:45;;;;;;;7.63;3.33;;;18.10;99.90;;;;;;5059993;28;20652;-80
2022/09/24 08:34:19;;;;;;;6.78;2.85;;;18.00;99.90;;;;;;5059442;28;20223;-85
2022/09/24 08:36:49;;;;;;;4.78;3.15;;;18.00;99.90;;;;;;5057854;28;20228;-80
2022/09/24 08:39:47;;;;;;;5.45;2.67;;;17.90;99.90;;;;;;5060320;28;20207;-80
2022/09/24 08:42:51;;;;;;;7.60;3.45;;;17.90;99.90;;;;;;5056568;28;20232;-84
2022/09/24 08:48:15;;;;;;;6.78;3.13;;;18.00;99.90;;;;;;5056597;28;20375;-81
2022/09/24 08:50:56;;;;;;;7.88;4.15;;;17.90;99.90;;;;;;5052200;28;20694;-80
2022/09/24 08:53:31;;;;;;;9.07;3.70;;;17.90;99.90;;;;;;5050016;28;20231;-80
2022/09/24 08:56:05;;;;;;;7.13;3.75;;;17.90;99.90;;;;;;5050152;28;20522;-82
2022/09/24 08:58:41;;;;;;;6.70;3.22;;;17.90;99.90;;;;;;5050003;28;20196;-79
2022/09/24 09:01:22;;;;;;;7.82;3.33;;;17.90;99.90;;;;;;5048762;28;20234;-80
2022/09/24 09:03:59;;;;;;;6.68;3.80;;;17.80;99.90;;;;;;5048798;28;20259;-80
2022/09/24 09:06:49;;;;;;;7.88;3.08;;;17.80;99.90;;;;;;5050429;28;20230;-81
2022/09/24 09:09:21;;;;;;;7.03;4.22;;;17.80;99.90;;;;;;5050272;28;20220;-79
2022/09/24 09:12:01;;;;;;;11.57;4.20;;;17.80;99.90;;;;;;5050017;28;20192;-79
2022/09/24 09:14:41;;;;;;;5.18;3.42;;;17.80;99.90;;;;;;5047305;28;20192;-80
2022/09/24 09:17:22;;;;;;;9.48;4.50;;;17.70;99.90;;;;;;5046206;28;20201;-82
2022/09/24 09:20:00;;;;;;;7.60;4.03;;;17.70;99.90;;;;;;5030049;28;20691;-81
2022/09/24 09:22:35;;;;;;;7.22;3.83;;;17.70;99.90;;;;;;5030194;28;20243;-81
2022/09/24 09:25:20;;;;;;;6.53;4.07;;;17.60;99.90;;;;;;5030184;28;20331;-81
2022/09/24 09:28:00;;;;;;;6.95;3.75;;;17.60;99.90;;;;;;5029731;28;20229;-81
2022/09/24 09:30:42;;;;;;;9.07;3.80;;;17.60;99.90;;;;;;5034576;28;20200;-80
2022/09/24 09:33:24;;;;;;;9.88;4.60;;;17.60;99.90;;;;;;5050280;28;20200;-80
2022/09/24 09:36:01;;;;;;;9.32;5.90;;;17.60;99.90;;;;;;5031521;28;20579;-80
2022/09/24 09:38:36;;;;;;;7.93;4.60;;;17.50;99.90;;;;;;5031659;28;20200;-80
2022/09/24 09:41:19;;;;;;;9.60;4.75;;;17.50;99.90;;;;;;5033673;28;20204;-80
2022/09/24 09:43:56;;;;;;;8.45;3.90;;;17.50;99.90;;;;;;5033808;28;20228;-81
2022/09/24 09:46:34;;;;;;;8.68;4.18;;;17.50;99.90;;;;;;5035740;28;20239;-81
2022/09/24 09:49:09;;;;;;;7.53;3.85;;;17.40;99.90;;;;;;5055369;28;20192;-81
2022/09/24 09:51:43;;;;;;;7.18;3.95;;;17.40;99.90;;;;;;5049241;28;20197;-80
2022/09/24 09:54:14;;;;;;;7.35;4.10;;;17.40;99.90;;;;;;5039221;28;20731;-81
2022/09/24 09:56:49;;;;;;;7.00;3.88;;;17.40;99.90;;;;;;5052066;28;20699;-80
2022/09/24 09:59:25;;;;;;;7.70;4.20;;;17.40;99.90;;;;;;5053488;28;20701;-80
2022/09/24 10:01:56;;;;;;;5.47;4.10;;;17.20;99.90;;;;;;5053101;28;20196;-80
2022/09/24 10:04:38;;;;;;;7.47;4.18;;;17.20;99.90;;;;;;5053143;28;20204;-80
2022/09/24 10:07:10;;;;;;;6.22;3.92;;;17.20;99.90;;;;;;5053590;28;20617;-80
2022/09/24 10:09:43;;;;;;;7.35;4.32;;;17.20;99.90;;;;;;5037473;28;20676;-81
2022/09/24 10:12:20;;;;;;;5.93;3.83;;;17.20;99.90;;;;;;5035249;28;20196;-81
2022/09/24 10:15:04;;;;;;;6.72;4.20;;;17.10;99.90;;;;;;5052888;28;20208;-81
2022/09/24 10:17:39;;;;;;;6.95;3.92;;;17.10;99.90;;;;;;5053174;28;20624;-81
2022/09/24 10:20:17;;;;;;;5.93;3.83;;;17.10;99.90;;;;;;5053326;28;20554;-80
2022/09/24 10:22:52;;;;;;;6.88;4.05;;;17.10;99.90;;;;;;5052721;28;20196;-80
2022/09/24 10:25:25;;;;;;;6.63;4.00;;;17.00;99.90;;;;;;5042510;28;20197;-80
2022/09/24 10:30:32;;;;;;;7.10;4.10;;;17.00;99.90;;;;;;5052394;28;20196;-81
2022/09/24 10:30:56;;;;;;;6.53;3.95;;;17.00;99.90;;;;;;5052226;28;20189;-81
2022/09/24 10:33:27;;;;;;;8.20;4.20;;;17.00;99.90;;;;;;5052162;28;20220;-80
2022/09/24 10:36:07;;;;;;;9.50;5.28;;;17.00;99.90;;;;;;5052196;28;20287;-80
2022/09/24 10:38:38;;;;;;;10.25;4.80;;;17.00;99.90;;;;;;5052356;28;20201;-80
2022/09/24 10:41:27;;;;;;;9.77;5.28;;;17.00;99.90;;;;;;5037713;28;20212;-80
2022/09/24 10:44:01;;;;;;;10.88;6.07;;;16.90;99.90;;;;;;5050388;28;20240;-81
2022/09/24 10:46:53;;;;;;;12.18;6.07;;;16.90;99.90;;;;;;5051807;28;20232;-80
2022/09/24 10:49:36;;;;;;;9.68;5.78;;;16.90;99.90;;;;;;5040955;28;20193;-80
2022/09/24 10:52:14;;;;;;;8.10;4.90;;;16.90;99.90;;;;;;5032406;28;20228;-80
2022/09/24 10:54:55;;;;;;;8.52;5.43;;;16.90;99.90;;;;;;5019194;28;20193;-79
2022/09/24 10:57:33;;;;;;;6.80;5.07;;;16.80;99.90;;;;;;5031557;28;20216;-80
2022/09/24 11:00:11;;;;;;;7.88;5.15;;;16.80;99.90;;;;;;5031112;28;20714;-80
2022/09/24 11:03:16;;;;;;;8.07;4.85;;;16.80;99.90;;;;;;5032364;28;20224;-80
2022/09/24 11:05:55;;;;;;;10.35;5.40;;;16.80;99.90;;;;;;5017727;28;20707;-79
2022/09/24 11:08:52;;;;;;;7.28;4.90;;;16.80;99.90;;;;;;5032127;28;20279;-80
2022/09/24 11:11:33;;;;;;;9.80;5.30;;;16.80;99.90;;;;;;5013024;28;20190;-79
2022/09/24 11:14:18;;;;;;;9.77;5.93;;;16.80;99.90;;;;;;5012041;28;20655;-79
2022/09/24 11:17:19;;;;;;;8.55;5.50;;;16.80;99.90;;;;;;5012571;28;20735;-79
2022/09/24 11:20:09;;;;;;;9.13;6.05;;;16.80;99.90;;;;;;5016496;28;20194;-81
2022/09/24 11:23:02;;;;;;;10.73;5.70;;;16.80;99.90;;;;;;5032098;28;20211;-80
2022/09/24 11:25:43;;;;;;;10.75;5.97;;;16.80;99.90;;;;;;5016034;28;20690;-81
2022/09/24 11:28:32;;;;;;;9.18;5.32;;;16.70;99.90;;;;;;5012077;28;20659;-80
2022/09/24 11:31:09;;;;;;;8.27;5.57;;;16.70;99.90;;;;;;5013386;28;20348;-79
2022/09/24 11:34:03;;;;;;;8.70;5.75;;;16.60;99.90;;;;;;5020346;28;20252;-79
2022/09/24 11:36:51;;;;;;;8.35;5.40;;;16.60;99.90;;;;;;5025597;28;20229;-80
2022/09/24 11:39:37;;;;;;;9.70;5.10;;;16.50;99.90;;;;;;5012334;28;20202;-80
2022/09/24 11:42:19;;;;;;;8.48;5.30;;;16.40;99.90;;;;;;5012311;28;20201;-80
2022/09/24 11:45:10;;;;;;;7.03;5.05;;;16.40;99.90;;;;;;5012083;28;20194;-80
2022/09/24 11:48:03;;;;;;;7.22;4.90;;;16.40;99.90;;;;;;5018763;28;20701;-80
2022/09/24 11:50:43;;;;;;;9.77;5.95;;;16.40;99.90;;;;;;5024783;28;20206;-79
2022/09/24 11:53:31;;;;;;;8.52;5.10;;;16.40;99.90;;;;;;5019683;28;20699;-79
2022/09/24 11:56:15;;;;;;;8.70;4.50;;;16.40;99.90;;;;;;5036056;28;20219;-81
2022/09/24 11:58:48;;;;;;;5.78;4.43;;;16.40;99.90;;;;;;5036103;28;20254;-81
2022/09/24 12:01:47;;;;;;;6.97;4.50;;;16.40;99.90;;;;;;5036576;28;20177;-81
2022/09/24 12:04:27;;;;;;;6.78;4.10;;;16.40;99.90;;;;;;5035456;28;20197;-81
2022/09/24 12:07:11;;;;;;;7.05;4.45;;;16.40;99.90;;;;;;5037196;28;20224;-82
2022/09/24 12:09:54;;;;;;;7.43;4.25;;;16.40;99.90;;;;;;5041452;28;20217;-81
2022/09/24 12:12:40;;;;;;;7.25;4.63;;;16.40;99.90;;;;;;5039586;28;20564;-82
2022/09/24 12:15:26;;;;;;;6.55;4.47;;;16.30;99.90;;;;;;5037654;28;20197;-83
2022/09/24 12:18:20;;;;;;;6.80;4.68;;;16.30;99.90;;;;;;5039917;28;20220;-81
2022/09/24 12:20:54;;;;;;;5.32;4.32;;;16.30;99.90;;;;;;5039486;28;20261;-83
2022/09/24 12:23:41;;;;;;;7.70;4.57;;;16.20;99.90;;;;;;5055826;28;20202;-84
2022/09/24 12:26:15;;;;;;;7.22;4.75;;;16.20;99.90;;;;;;5052482;28;20224;-80
2022/09/24 12:35:14;;;;;;;7.63;4.90;;;16.20;99.90;;;;;;5039219;28;20303;-82
2022/09/24 12:37:51;;;;;;;6.05;4.47;;;16.20;99.90;;;;;;5051100;28;20204;-80
2022/09/24 12:40:50;;;;;;;6.40;4.53;;;16.30;99.90;;;;;;5033562;28;20201;-81
2022/09/24 12:43:27;;;;;;;7.78;4.82;;;16.30;99.90;;;;;;5023480;28;20204;-80
2022/09/24 12:46:04;;;;;;;7.68;5.45;;;16.30;99.90;;;;;;5033945;28;20199;-81
2022/09/24 12:48:39;;;;;;;8.23;5.03;;;16.30;99.90;;;;;;5040999;28;20203;-80
2022/09/24 12:51:11;;;;;;;8.50;4.85;;;16.40;99.90;;;;;;5050672;28;20196;-79
2022/09/24 12:53:45;;;;;;;5.72;4.82;;;16.40;99.90;;;;;;5047574;28;20233;-80
2022/09/24 12:56:28;;;;;;;8.00;4.97;;;16.30;99.90;;;;;;5042029;28;20270;-80
2022/09/24 12:58:59;;;;;;;8.48;5.18;;;16.40;99.90;;;;;;5040120;28;20200;-79
2022/09/24 13:01:34;;;;;;;7.25;4.60;;;16.30;99.90;;;;;;5051501;28;20197;-80
2022/09/24 13:04:23;;;;;;;9.25;4.82;;;16.40;99.90;;;;;;5054484;28;20337;-80
2022/09/24 13:06:55;;;;;;;6.55;4.53;;;16.40;99.90;;;;;;5053932;28;20220;-79
2022/09/24 13:09:37;;;;;;;6.97;4.65;;;16.40;99.90;;;;;;5054446;28;20200;-79
2022/09/24 13:12:22;;;;;;;6.60;4.70;;;16.30;99.90;;;;;;5054111;28;20201;-80
2022/09/24 13:14:59;;;;;;;5.63;4.53;;;16.20;99.90;;;;;;5055681;28;20195;-79
2022/09/24 13:17:33;;;;;;;5.30;4.40;;;16.20;99.90;;;;;;5047427;28;20224;-80
2022/09/24 13:20:08;;;;;;;7.90;5.15;;;16.10;99.90;;;;;;5034243;28;20217;-80
2022/09/24 13:22:39;;;;;;;6.72;4.78;;;16.10;99.90;;;;;;5035684;28;20200;-80
2022/09/24 13:25:28;;;;;;;8.85;5.22;;;16.00;99.90;;;;;;5034446;28;20201;-80
2022/09/24 13:28:02;;;;;;;9.73;5.43;;;16.00;99.90;;;;;;5035969;28;20225;-80
2022/09/24 13:30:40;;;;;;;7.75;5.35;;;16.00;99.90;;;;;;5033931;28;20204;-80
2022/09/24 13:33:24;;;;;;;7.68;5.22;;;15.90;99.90;;;;;;5046658;28;20699;-80
2022/09/24 13:36:15;;;;;;;7.22;5.57;;;15.90;99.90;;;;;;5054248;28;20266;-81
2022/09/24 13:38:56;;;;;;;7.20;5.55;;;15.80;99.90;;;;;;5057171;28;20210;-79
2022/09/24 13:41:38;;;;;;;7.88;5.38;;;15.90;99.90;;;;;;5054079;28;20203;-80
2022/09/24 13:44:18;;;;;;;7.63;5.55;;;16.00;99.90;;;;;;5054124;28;20224;-80
2022/09/24 13:46:51;;;;;;;6.72;5.18;;;16.10;99.90;;;;;;5054416;28;20230;-80
2022/09/24 13:49:25;;;;;;;7.32;5.10;;;16.10;99.90;;;;;;5051543;28;20251;-79